createdAt,value
2018-05-08T00:01:04.858Z,1016.7
2018-05-08T00:06:05.197Z,1016.7
2018-05-08T00:11:04.947Z,1016.7
2018-05-08T00:16:05.007Z,1016.7
2018-05-08T00:21:04.819Z,1016.7
2018-05-08T00:26:04.992Z,1016.6
2018-05-08T00:31:05.305Z,1016.6
2018-05-08T00:36:04.558Z,1016.5
2018-05-08T00:41:05.104Z,1016.4
2018-05-08T00:46:04.817Z,1016.3
2018-05-08T00:51:04.920Z,1016.3
2018-05-08T00:56:05.188Z,1016.2
2018-05-08T01:01:04.449Z,1016.2
2018-05-08T01:06:04.939Z,1016.2
2018-05-08T01:11:04.548Z,1016.2
2018-05-08T01:16:04.778Z,1016.2
2018-05-08T01:21:06.845Z,1016.1
2018-05-08T01:26:04.511Z,1016.1
2018-05-08T01:31:04.815Z,1016.1
2018-05-08T01:36:05.276Z,1016
2018-05-08T01:41:04.878Z,1016
2018-05-08T01:46:05.154Z,1016
2018-05-08T01:51:04.593Z,1016
2018-05-08T01:56:04.862Z,1016
2018-05-08T02:01:05.151Z,1015.9
2018-05-08T02:06:04.619Z,1015.9
2018-05-08T02:11:05.178Z,1016
2018-05-08T02:16:04.449Z,1015.9
2018-05-08T02:21:04.948Z,1015.9
2018-05-08T02:26:05.179Z,1015.8
2018-05-08T02:31:04.503Z,1015.8
2018-05-08T02:36:05.009Z,1015.7
2018-05-08T02:41:04.521Z,1015.6
2018-05-08T02:46:04.836Z,1015.7
2018-05-08T02:51:05.410Z,1015.7
2018-05-08T02:56:04.545Z,1015.6
2018-05-08T03:01:04.867Z,1015.6
2018-05-08T03:06:05.309Z,1015.7
2018-05-08T03:11:04.881Z,1015.6
2018-05-08T03:16:05.150Z,1015.6
2018-05-08T03:21:04.642Z,1015.6
2018-05-08T03:26:04.873Z,1015.6
2018-05-08T03:31:05.226Z,1015.5
2018-05-08T03:36:04.692Z,1015.6
2018-05-08T03:41:05.213Z,1015.5
2018-05-08T03:46:04.544Z,1015.6
2018-05-08T03:51:05.039Z,1015.6
2018-05-08T03:56:05.237Z,1015.6
2018-05-08T04:01:04.565Z,1015.6
2018-05-08T04:06:05.041Z,1015.6
2018-05-08T04:11:04.619Z,1015.5
2018-05-08T04:16:04.952Z,1015.4
2018-05-08T04:21:04.940Z,1015.3
2018-05-08T04:26:04.329Z,1015.3
2018-05-08T04:31:04.651Z,1015.4
2018-05-08T04:36:05.122Z,1015.3
2018-05-08T04:41:04.678Z,1015.4
2018-05-08T04:46:04.981Z,1015.3
2018-05-08T04:51:04.411Z,1015.3
2018-05-08T04:56:04.632Z,1015.2
2018-05-08T05:01:04.945Z,1015.1
2018-05-08T05:06:04.452Z,1015.1
2018-05-08T05:11:05.500Z,1015
2018-05-08T05:16:04.362Z,1014.9
2018-05-08T05:21:04.846Z,1014.8
2018-05-08T05:26:04.989Z,1014.9
2018-05-08T05:31:04.308Z,1015
2018-05-08T05:36:04.791Z,1014.9
2018-05-08T05:41:04.345Z,1014.8
2018-05-08T05:46:04.637Z,1014.8
2018-05-08T05:51:05.100Z,1014.8
2018-05-08T05:56:04.342Z,1014.7
2018-05-08T06:01:04.695Z,1014.6
2018-05-08T06:06:05.078Z,1014.7
2018-05-08T06:11:04.650Z,1014.6
2018-05-08T06:16:04.965Z,1014.6
2018-05-08T06:21:04.491Z,1014.7
2018-05-08T06:26:04.657Z,1014.6
2018-05-08T06:31:05.034Z,1014.5
2018-05-08T06:36:04.482Z,1014.6
2018-05-08T06:41:05.028Z,1014.5
2018-05-08T06:46:04.360Z,1014.5
2018-05-08T06:51:04.827Z,1014.4
2018-05-08T06:56:05.004Z,1014.3
2018-05-08T07:01:04.356Z,1014.3
2018-05-08T07:06:04.813Z,1014.2
2018-05-08T07:11:04.396Z,1014.3
2018-05-08T07:16:06.386Z,1014.2
2018-05-08T07:21:05.299Z,1014.2
2018-05-08T07:26:04.486Z,1014.2
2018-05-08T07:31:04.903Z,1014.2
2018-05-08T07:36:05.281Z,1014.3
2018-05-08T07:41:04.829Z,1014.3
2018-05-08T07:46:05.158Z,1014.1
2018-05-08T07:51:04.634Z,1014.1
2018-05-08T07:56:04.831Z,1014.1
2018-05-08T08:01:05.082Z,1014.1
2018-05-08T08:06:04.593Z,1014.1
2018-05-08T08:11:05.219Z,1014
2018-05-08T08:16:04.471Z,1013.9
2018-05-08T08:21:04.988Z,1013.8
2018-05-08T08:26:05.236Z,1013.8
2018-05-08T08:31:04.523Z,1013.8
2018-05-08T08:36:04.948Z,1013.8
2018-05-08T08:41:04.571Z,1013.8
2018-05-08T08:46:04.819Z,1013.7
2018-05-08T08:51:05.303Z,1013.7
2018-05-08T08:56:04.976Z,1013.6
2018-05-08T09:01:04.868Z,1013.6
2018-05-08T09:06:05.333Z,1013.4
2018-05-08T09:11:04.911Z,1013.4
2018-05-08T09:16:05.154Z,1013.3
2018-05-08T09:21:04.661Z,1013.2
2018-05-08T09:26:04.882Z,1013.2
2018-05-08T09:31:05.201Z,1013.1
2018-05-08T09:36:04.639Z,1013
2018-05-08T09:41:05.834Z,1012.9
2018-05-08T09:46:04.522Z,1012.8
2018-05-08T09:51:04.971Z,1012.8
2018-05-08T09:56:05.145Z,1012.6
2018-05-08T10:01:04.701Z,1012.5
2018-05-08T10:06:04.990Z,1012.5
2018-05-08T10:11:04.484Z,1012.4
2018-05-08T10:16:04.773Z,1012.5
2018-05-08T10:21:05.312Z,1012.4
2018-05-08T10:26:04.571Z,1012.3
2018-05-08T10:31:04.835Z,1012.1
2018-05-08T10:36:05.313Z,1012
2018-05-08T10:41:04.870Z,1012
2018-05-08T10:46:05.180Z,1011.9
2018-05-08T10:51:04.654Z,1011.8
2018-05-08T10:56:04.865Z,1011.8
2018-05-08T11:01:05.134Z,1011.7
2018-05-08T11:06:04.735Z,1011.6
2018-05-08T11:11:05.213Z,1011.6
2018-05-08T11:16:04.496Z,1011.5
2018-05-08T11:21:04.933Z,1011.4
2018-05-08T11:26:05.207Z,1011.4
2018-05-08T11:31:04.490Z,1011.4
2018-05-08T11:36:04.994Z,1011.3
2018-05-08T11:41:04.561Z,1011.2
2018-05-08T11:46:04.938Z,1011
2018-05-08T11:51:05.303Z,1011.1
2018-05-08T11:56:04.556Z,1011
2018-05-08T12:01:05.628Z,1011
2018-05-08T12:06:05.302Z,1010.9
2018-05-08T12:11:04.832Z,1010.8
2018-05-08T12:16:05.178Z,1010.7
2018-05-08T12:21:04.689Z,1010.7
2018-05-08T12:26:04.866Z,1010.7
2018-05-08T12:31:05.160Z,1010.5
2018-05-08T12:36:04.728Z,1010.5
2018-05-08T12:41:05.289Z,1010.4
2018-05-08T12:46:04.500Z,1010.4
2018-05-08T12:51:05.026Z,1010.3
2018-05-08T12:56:05.596Z,1010.3
2018-05-08T13:01:04.530Z,1010.2
2018-05-08T13:06:05.011Z,1010.1
2018-05-08T13:11:05.342Z,1010.1
2018-05-08T13:16:04.819Z,1010.1
2018-05-08T13:21:05.391Z,1010
2018-05-08T13:26:04.511Z,1009.9
2018-05-08T13:31:05.281Z,1009.9
2018-05-08T13:36:05.369Z,1009.8
2018-05-08T13:41:05.018Z,1009.7
2018-05-08T13:46:05.169Z,1009.7
2018-05-08T13:51:04.694Z,1009.6
2018-05-08T13:56:04.877Z,1009.6
2018-05-08T14:01:05.252Z,1009.6
2018-05-08T14:06:04.678Z,1009.6
2018-05-08T14:11:05.297Z,1009.5
2018-05-08T14:16:04.567Z,1009.4
2018-05-08T14:21:05.072Z,1009.4
2018-05-08T14:26:05.218Z,1009.3
2018-05-08T14:31:05.538Z,1009.2
2018-05-08T14:36:04.984Z,1009.2
2018-05-08T14:41:04.591Z,1009.1
2018-05-08T14:46:04.842Z,1009.1
2018-05-08T14:51:05.309Z,1009.1
2018-05-08T14:56:04.533Z,1009
2018-05-08T15:01:04.861Z,1009
2018-05-08T15:06:05.341Z,1008.9
2018-05-08T15:11:04.892Z,1008.8
2018-05-08T15:16:05.159Z,1008.9
2018-05-08T15:21:04.734Z,1008.8
2018-05-08T15:26:04.911Z,1008.7
2018-05-08T15:31:05.270Z,1008.8
2018-05-08T15:36:04.857Z,1008.7
2018-05-08T15:41:06.058Z,1008.6
2018-05-08T15:46:05.380Z,1008.6
2018-05-08T15:51:05.025Z,1008.6
2018-05-08T15:56:05.247Z,1008.5
2018-05-08T16:01:04.556Z,1008.4
2018-05-08T16:06:06.225Z,1008.4
2018-05-08T16:11:04.556Z,1008.4
2018-05-08T16:16:04.924Z,1008.4
2018-05-08T16:21:04.912Z,1008.4
2018-05-08T16:26:04.839Z,1008.3
2018-05-08T16:31:04.913Z,1008.5
2018-05-08T16:36:05.697Z,1008.4
2018-05-08T16:41:11.929Z,1008.4
2018-05-08T16:46:05.260Z,1008.5
2018-05-08T16:51:04.662Z,1008.5
2018-05-08T16:56:04.872Z,1008.5
2018-05-08T17:01:05.262Z,1008.5
2018-05-08T17:06:04.670Z,1008.5
2018-05-08T17:11:05.272Z,1008.4
2018-05-08T17:16:04.494Z,1008.5
2018-05-08T17:21:05.301Z,1008.6
2018-05-08T17:26:05.273Z,1008.6
2018-05-08T17:31:05.358Z,1008.5
2018-05-08T17:36:05.127Z,1008.5
2018-05-08T17:41:04.590Z,1008.6
2018-05-08T17:46:04.933Z,1008.6
2018-05-08T17:51:07.623Z,1008.6
2018-05-08T17:56:04.631Z,1008.6
2018-05-08T18:01:04.924Z,1008.6
2018-05-08T18:06:05.381Z,1008.6
2018-05-08T18:11:04.883Z,1008.6
2018-05-08T18:16:05.252Z,1008.6
2018-05-08T18:21:05.054Z,1008.7
2018-05-08T18:26:04.932Z,1008.7
2018-05-08T18:31:05.649Z,1008.7
2018-05-08T18:36:06.020Z,1008.8
2018-05-08T18:41:05.325Z,1008.8
2018-05-08T18:46:05.518Z,1008.8
